Weather observations for the past three days for
O'Neill / Baker Field
Imperial (Metric)
Date Time (cdt) Wind (mph) Vis. (mi.) Weather Sky Cond. Temperature (ºF) Relative Humidity Wind Chill (°F) Heat Index (°F) Pressure Precipitation (in)
Air Dwpt 6 hour altimeter (in) sea level (mb) 1 hr 3 hr 6 hr
Max. Min.
10 14:55 W 15 10.00 Overcast BKN095 OVC110 69.6 35.2 28% 30.14 0.0
10 14:35 NW 14 G 17 10.00 Overcast BKN080 OVC110 70.5 35.2 27% 30.14 0.0
10 14:15 W 9 G 17 10.00 Overcast SCT085 BKN095 OVC120 72.1 34.9 26% 30.14 0.0
10 13:55 W 13 G 16 10.00 Mostly Cloudy SCT085 BKN090 BKN120 70 33.6 26% 30.14 0.0
10 13:35 NW 14 G 17 10.00 Mostly Cloudy SCT085 BKN120 71.2 33.4 25% 30.15 0.0
10 13:15 W 15 G 20 10.00 Mostly Cloudy SCT085 SCT095 BKN120 69.6 32.7 26% 30.16 0.0
10 12:55 W 8 10.00 Overcast BKN085 OVC095 68.7 32.7 69.3 42.1 26% 30.17 0.0
10 12:35 W 8 10.00 Overcast BKN080 OVC085 67.8 32.7 27% 30.17 0.0
10 12:15 N 3 10.00 Partly Cloudy SCT080 SCT090 67.6 34.2 29% 30.17 0.0
10 11:55 W 6 10.00 Mostly Cloudy BKN080 BKN090 64.9 35.4 34% 30.18 0.0
10 11:35 W 3 10.00 Overcast OVC080 61.5 35.4 38% 30.18 0.0
10 11:15 W 5 10.00 Overcast OVC080 60.1 36.3 41% 30.19 0.0
10 10:55 W 9 10.00 Overcast OVC090 60.1 37.6 43% 30.19 0.0
10 10:35 W 7 10.00 Overcast OVC090 59.4 37.2 44% 30.18 0.0
10 10:15 W 10 10.00 Overcast OVC090 59.9 37 43% 30.18 0.0
10 09:55 W 9 10.00 Overcast OVC090 58.1 37.2 46% 30.18 0.0
10 09:35 W 9 10.00 Overcast OVC100 57.7 35.8 44% 30.18 0.0
10 09:15 W 12 G 18 10.00 Mostly Cloudy BKN090 59 35.8 42% 30.18 0.0
10 08:55 W 12 G 17 10.00 Mostly Cloudy BKN100 BKN120 55.9 36 47% 30.18 0.0
10 08:35 W 9 10.00 Overcast OVC100 51.8 36 55% 30.18 0.0
10 08:15 W 8 10.00 Overcast OVC100 49.3 35.4 59% 46 30.18 0.0
10 07:55 W 3 10.00 Overcast OVC100 47.3 35.6 64% 30.18 0.0
10 07:35 W 7 10.00 Overcast OVC100 45.9 34.3 64% 43 30.17 0.0
10 07:15 W 8 10.00 Overcast OVC095 45 33.8 65% 41 30.17 0.0
10 06:55 W 7 10.00 Overcast OVC095 41.7 32.5 41.7 33.4 70% 38 30.16 0.0
10 06:35 SW 6 10.00 Mostly Cloudy BKN095 37.9 30.7 75% 34 30.16 0.0
10 06:15 W 3 10.00 Partly Cloudy SCT095 34.3 30.2 85% 30.16 0.0
10 05:55 W 3 10.00 Fair CLR 33.6 30.4 88% 30.16 0.0
10 05:35 SW 3 10.00 Fair CLR 34 30.6 87% 30.16 0.0
10 05:15 SW 5 10.00 Fair CLR 38.5 30.7 74% 36 30.15 0.0
10 04:55 SW 5 10.00 Fair CLR 38.3 30.9 75% 35 30.14 0.0
10 04:35 W 3 10.00 Fair CLR 39.2 30.7 72% 30.14 0.0
10 04:15 W 6 10.00 Fair CLR 39.4 30.2 70% 36 30.14 0.0
10 03:55 W 3 10.00 Fair CLR 37.6 30.9 77% 30.13 0.0
10 03:35 W 5 10.00 Fair CLR 38.3 31.1 75% 35 30.13 0.0
10 03:15 W 5 10.00 Fair CLR 36.7 30.6 79% 33 30.13 0.0
10 02:55 SW 3 10.00 Fair CLR 37.2 31.8 81% 30.13 0.0
10 02:35 W 3 10.00 Fair CLR 35.6 31.8 86% 30.12 0.0
10 02:15 SW 6 10.00 Fair CLR 36.5 32 84% 32 30.11 0.0
10 01:55 W 3 10.00 Fair CLR 37.6 32 80% 30.11 0.0
10 01:35 Calm 10.00 Fair CLR 40.1 32 73% 30.11 0.0
10 01:15 W 3 10.00 Fair CLR 39 32.7 78% 30.1 0.0
10 00:55 SW 3 10.00 Fair CLR 40.3 32 63.3 40.3 72% 30.1 0.0
10 00:35 Calm 10.00 Fair CLR 45.5 30.4 56% 30.1 0.0
10 00:15 Calm 10.00 Fair CLR 44.2 29.8 57% 30.09 0.0
09 23:55 N 5 10.00 Fair CLR 44.6 30.4 58% 43 30.09 0.0
09 23:35 Calm 10.00 Fair CLR 46.2 30.2 54% 30.09 0.0
09 23:15 NW 5 10.00 Fair CLR 47.3 30.4 52% 46 30.09 0.0
09 22:55 N 3 10.00 Fair CLR 46.9 31.5 55% 30.08 0.0
09 22:35 N 3 10.00 Fair CLR 48.9 30.2 49% 30.07 0.0
09 22:15 N 5 10.00 Fair CLR 50 29.3 45% 49 30.06 0.0
09 21:55 NE 6 10.00 Fair CLR 50.5 29.3 44% 30.05 0.0
09 21:35 NE 7 10.00 Fair CLR 50.9 29.7 44% 30.04 0.0
09 21:15 NE 6 10.00 Fair CLR 51.8 30.2 44% 30.03 0.0
09 20:55 N 7 10.00 Fair CLR 53.6 30.6 41% 30.02 0.0
09 20:35 N 6 10.00 Fair CLR 56.1 30.7 38% 30.02 0.0
09 20:15 N 8 10.00 Fair CLR 59 30.2 34% 30 0.0
09 19:55 NE 12 10.00 Fair CLR 60.4 30.9 33% 29.99 0.0
09 19:35 N 12 10.00 Fair CLR 61.5 30.6 31% 29.99 0.0
09 19:15 N 14 G 18 10.00 Fair CLR 62.4 30.4 30% 29.98 0.0
09 18:55 N 12 G 17 10.00 Fair CLR 63.5 30.9 66.9 62.6 29% 29.98 0.0
09 18:35 N 12 G 18 10.00 Fair CLR 64.4 30.4 28% 29.97 0.0
09 18:15 N 12 G 17 10.00 Fair CLR 64.6 30 27% 29.97 0.0
09 17:55 N 10 G 22 10.00 Fair CLR 65.1 29.5 26% 29.96 0.0
09 17:35 N 13 G 22 10.00 Fair CLR 66 29.7 26% 29.96 0.0
09 17:15 N 14 G 22 10.00 Fair CLR 65.5 29.8 26% 29.95 0.0
09 16:55 N 13 G 24 10.00 Fair CLR 65.7 30.9 27% 29.95 0.0
09 16:35 N 14 G 20 10.00 Fair CLR 65.3 31.6 28% 29.95 0.0
09 16:15 N 13 G 24 10.00 Fair CLR 66.6 32.2 28% 29.95 0.0
09 15:55 N 14 G 23 10.00 Fair CLR 66.6 33.4 29% 29.95 0.0
09 15:35 N 15 G 22 10.00 Fair CLR 65.7 34.3 31% 29.94 0.0
09 15:15 N 12 G 25 10.00 Fair CLR 64.9 36.1 35% 29.93 0.0
09 14:55 NW 13 G 23 10.00 Fair CLR 64.6 35.8 34% 29.93 0.0
09 14:35 N 9 G 24 10.00 Fair CLR 64.9 39 39% 29.93 0.0
09 14:15 N 16 10.00 Fair CLR 64.6 40.6 42% 29.93 0.0
09 13:55 N 15 G 20 10.00 Fair CLR 64.2 39.9 41% 29.92 0.0
09 13:35 N 16 G 22 10.00 Fair CLR 64.2 39.9 41% 29.92 0.0
09 13:15 N 16 G 22 10.00 Partly Cloudy SCT040 63.1 42.4 47% 29.91 0.0
09 12:35 N 15 G 21 10.00 Partly Cloudy SCT085 SCT120 63.7 41.9 45% 29.91 0.0
09 12:15 N 17 G 24 10.00 Partly Cloudy SCT100 62.4 41.2 46% 29.9 0.0
09 11:55 N 14 G 18 10.00 Partly Cloudy SCT100 62.4 41.5 47% 29.9 0.0
09 11:35 N 15 G 21 10.00 Partly Cloudy SCT120 60.6 40.5 48% 29.89 0.0
09 11:15 N 12 G 20 10.00 Mostly Cloudy SCT065 SCT075 BKN120 58.1 40.8 53% 29.88 0.0
09 10:55 NE 13 10.00 Overcast SCT070 OVC100 58.1 38.8 49% 29.87 0.0
09 10:35 NE 8 10.00 Overcast SCT050 SCT070 OVC110 57.9 37.8 47% 29.85 0.0
09 10:15 E 10 10.00 Overcast SCT070 BKN085 OVC110 57.6 37.8 48% 29.83 0.0
09 09:55 NE 12 10.00 Overcast OVC110 57.7 37 46% 29.84 0.0
09 09:35 E 12 10.00 Partly Cloudy SCT120 58.8 36.9 44% 29.84 0.0
09 09:15 E 15 10.00 Fair CLR 57.7 36.3 45% 29.83 0.0
09 08:55 E 14 10.00 Partly Cloudy SCT120 57.4 35.6 44% 29.83 0.0
09 08:15 NE 9 10.00 Partly Cloudy SCT120 55 32.9 43% 29.82 0.0
09 07:55 NE 7 10.00 Fair CLR 54 31.8 43% 29.82 0.0
09 07:35 N 9 10.00 Partly Cloudy SCT110 54.3 30.2 40% 29.82 0.0
09 07:15 N 9 10.00 Mostly Cloudy BKN110 54.9 30.9 40% 29.81 0.0
09 06:55 N 18 G 36 10.00 Mostly Cloudy BKN110 55.9 28.2 55.9 40.1 35% 29.81 0.0
09 06:35 SW 8 10.00 Partly Cloudy SCT120 47.8 31.6 54% 45 29.76 0.0
09 06:15 SW 10 10.00 Fair CLR 48.9 31.1 50% 45 29.75 0.0
09 05:55 SW 10 10.00 Partly Cloudy SCT110 47.8 31.8 54% 44 29.75 0.0
09 05:35 SW 7 10.00 Mostly Cloudy BKN110 45.5 33.1 62% 42 29.75 0.0
09 05:15 SW 8 10.00 Mostly Cloudy BKN120 44.6 32.9 64% 41 29.75 0.0
09 04:35 SW 8 10.00 Mostly Cloudy BKN110 44.8 31.8 61% 41 29.76 0.0
09 04:15 SW 9 10.00 Mostly Cloudy BKN110 44.2 32 62% 40 29.76 0.0
09 03:55 SW 8 10.00 Partly Cloudy SCT120 42.3 32.9 70% 38 29.76 0.0
09 03:35 SW 7 10.00 Partly Cloudy SCT120 40.8 32.2 71% 37 29.76 0.0
09 03:15 SW 6 10.00 Partly Cloudy SCT120 41.9 32 68% 39 29.76 0.0
09 02:55 SW 5 10.00 Fair CLR 41.9 32 68% 40 29.76 0.0
09 02:35 SW 6 10.00 Partly Cloudy SCT120 40.5 33.3 76% 37 29.76 0.0
09 02:15 Calm 10.00 Fair CLR 41.2 34 76% 29.77 0.0
09 01:55 SW 6 10.00 Partly Cloudy SCT120 41.9 33.8 73% 39 29.78 0.0
09 01:35 SW 3 10.00 Fair CLR 44.1 32 63% 29.78 0.0
09 01:15 SW 5 10.00 Fair CLR 41.9 33.3 72% 40 29.79 0.0
09 00:55 SW 3 10.00 Fair CLR 44.6 32 72.1 42.1 61% 29.79 0.0
09 00:35 SW 5 10.00 Fair CLR 42.1 32 68% 40 29.8 0.0
09 00:15 W 3 10.00 Fair CLR 47.7 32.9 57% 29.8 0.0
08 23:55 SW 3 10.00 Fair CLR 46.4 33.8 62% 29.81 0.0
08 23:35 Calm 10.00 Fair CLR 46.2 32.9 60% 29.81 0.0
08 23:15 Calm 10.00 Fair CLR 51.8 30.9 45% 29.81 0.0
08 22:55 NW 3 10.00 Fair CLR 55.9 28.9 36% 29.81 0.0
08 22:35 N 5 10.00 Fair CLR 55.9 29.5 36% 29.81 0.0
08 22:15 NW 5 10.00 Fair CLR 54.5 27.5 35% 29.81 0.0
08 21:55 N 5 10.00 Fair CLR 56.3 27.7 33% 29.81 0.0
08 21:35 N 6 10.00 Fair CLR 57.2 28.2 33% 29.8 0.0
08 21:15 N 6 10.00 Fair CLR 57.6 28.9 34% 29.8 0.0
08 20:55 N 7 10.00 Fair CLR 60.3 28.4 30% 29.79 0.0
08 20:35 N 9 10.00 Fair CLR 63.9 27 25% 29.78 0.0
08 20:15 NW 9 10.00 Fair CLR 66 26.8 23% 29.78 0.0
08 19:55 N 16 G 21 10.00 Fair CLR 68.2 26.2 21% 29.77 0.0
08 19:35 NW 14 10.00 Fair CLR 69.8 28.9 22% 29.77 0.0
08 19:15 N 20 10.00 Fair CLR 71.1 28.6 21% 29.76 0.0
08 18:55 NW 18 G 29 10.00 Fair CLR 72.3 27.5 77.4 72 19% 29.76 0.0
08 18:35 NW 21 G 30 10.00 Fair and Breezy CLR 73.4 26.2 17% 29.75 0.0
08 18:15 NW 24 G 29 10.00 Fair and Breezy CLR 74.5 25.9 16% 29.75 0.0
08 17:55 NW 17 G 29 10.00 Partly Cloudy SCT100 73 27.1 18% 29.75 0.0
08 17:35 NW 21 G 26 10.00 Partly Cloudy and Breezy SCT100 75.4 26.1 16% 76 29.75 0.0
08 17:15 NW 20 G 37 10.00 Fair CLR 75.6 23.4 14% 76 29.75 0.0
08 16:55 NW 21 G 31 10.00 Partly Cloudy and Breezy SCT110 75.7 21 13% 75 29.75 0.0
08 16:35 NW 21 G 29 10.00 Partly Cloudy and Breezy SCT100 SCT120 75.9 25 15% 76 29.75 0.0
08 16:15 NW 20 G 26 10.00 Partly Cloudy SCT100 76.3 32 20% 77 29.75 0.0
08 15:55 NW 22 10.00 Mostly Cloudy and Breezy BKN100 73.9 30.6 20% 29.76 0.0
08 15:35 W 23 G 28 10.00 Partly Cloudy and Breezy SCT100 76.3 30 18% 76 29.76 0.0
08 15:15 NW 20 G 26 10.00 Partly Cloudy SCT095 74.8 28.8 18% 29.76 0.0
08 14:55 NW 21 G 28 10.00 Partly Cloudy and Breezy SCT095 74.7 28 18% 29.78 0.0
08 14:35 NW 18 G 29 10.00 Partly Cloudy SCT095 75 26.2 16% 76 29.78 0.0
08 14:15 N 20 G 29 10.00 Partly Cloudy SCT095 74.3 27 17% 29.78 0.0
08 13:55 N 20 G 30 10.00 Partly Cloudy SCT090 73.9 27 17% 29.79 0.0
08 13:35 NW 20 G 30 10.00 Partly Cloudy SCT090 73.9 27.5 18% 29.79 0.0
08 13:15 NW 21 G 26 10.00 Fair and Breezy CLR 72.9 30.4 21% 29.8 0.0
08 12:55 NW 16 G 28 10.00 Partly Cloudy SCT080 73.6 28.9 73.6 48.7 19% 29.8 0.0
08 12:35 NW 16 G 22 10.00 Fair CLR 72.5 32.9 23% 29.81 0.0
08 12:15 NW 15 G 21 10.00 Fair CLR 71.4 32.9 24% 29.81 0.0
08 11:55 NW 12 G 20 10.00 Fair CLR 70.9 33.4 25% 29.81 0.0
08 11:35 NW 13 G 18 10.00 Fair CLR 70.9 35.6 27% 29.81 0.0
08 11:15 NW 7 G 18 10.00 Fair CLR 68.7 37.9 32% 29.81 0.0
08 10:55 NW 13 G 18 10.00 Fair CLR 67.3 39.2 36% 29.81 0.0
08 10:35 NW 10 G 17 10.00 Fair CLR 66.7 40.5 38% 29.82 0.0
08 10:15 W 9 G 16 10.00 Fair CLR 65.7 40.3 40% 29.82 0.0
08 09:55 W 13 G 16 10.00 Fair CLR 64.8 38.3 38% 29.82 0.0
08 09:35 W 12 10.00 Fair CLR 63.5 37 38% 29.82 0.0
08 09:15 W 9 10.00 Fair CLR 61.9 36.1 38% 29.82 0.0
08 08:55 W 10 G 17 10.00 Fair CLR 61.9 34.5 36% 29.83 0.0
08 08:35 SW 10 10.00 Partly Cloudy SCT110 58.8 33.8 39% 29.83 0.0
08 08:15 W 9 10.00 Fair CLR 55.9 33.3 42% 29.83 0.0
08 07:55 W 10 10.00 Partly Cloudy SCT110 53.1 33.1 47% 29.83 0.0
08 07:35 SW 6 10.00 Mostly Cloudy SCT090 BKN120 52.2 32.2 47% 29.82 0.0
08 07:15 SW 6 10.00 Mostly Cloudy SCT090 BKN120 48.9 32.5 53% 47 29.82 0.0
08 06:55 SW 7 10.00 Partly Cloudy SCT100 SCT120 49.3 32 53.4 48.7 52% 47 29.82 0.0
08 06:35 SW 5 10.00 Mostly Cloudy SCT100 BKN120 49.1 33.3 55% 48 29.81 0.0
08 06:15 SW 8 10.00 Mostly Cloudy SCT100 BKN120 50 32.9 52% 47 29.82 0.0
08 05:55 SW 6 10.00 Partly Cloudy SCT120 49.5 32.2 52% 48 29.82 0.0
08 05:35 SW 7 10.00 Mostly Cloudy BKN110 49.8 31.1 49% 47 29.82 0.0
08 05:15 SW 5 10.00 Overcast OVC100 49.6 32 51% 48 29.82 0.0
08 04:55 SW 5 10.00 Overcast OVC110 50.9 31.3 47% 29.82 0.0
08 04:35 Calm 10.00 Overcast OVC110 50.9 30.2 45% 29.81 0.0
08 04:15 Calm 10.00 Overcast OVC110 50.4 31.5 48% 29.82 0.0
08 03:55 S 3 10.00 Overcast OVC110 48.9 32.2 53% 29.82 0.0
08 03:35 SE 6 10.00 Mostly Cloudy BKN120 52.2 28.4 40% 29.82 0.0
08 03:15 Calm 10.00 Overcast OVC110 51.1 30.7 46% 29.83 0.0
08 02:55 Calm 10.00 Overcast OVC110 52.7 29.7 41% 29.83 0.0
08 02:35 Calm 10.00 Overcast OVC110 51.3 30.7 46% 29.83 0.0
08 02:15 S 6 10.00 Overcast OVC110 52.5 29.3 41% 29.84 0.0
08 01:55 Calm 10.00 Overcast OVC110 52.5 30.4 43% 29.83 0.0
08 01:35 E 3 10.00 Overcast OVC110 51.1 32.2 49% 29.84 0.0
08 01:15 Calm 10.00 Overcast SCT075 OVC095 51.8 30.9 45% 29.85 0.0
08 00:55 Calm 10.00 Overcast SCT075 OVC095 52.5 30.2 65.8 52.5 43% 29.86 0.0
08 00:35 Calm 10.00 Overcast BKN095 OVC110 53.8 29.3 39% 29.85 0.0
08 00:15 E 3 10.00 Overcast OVC110 53.6 27.7 37% 29.85 0.0
07 23:55 E 3 10.00 Overcast OVC100 53.6 26.8 36% 29.85 0.0
07 23:35 E 6 10.00 Overcast OVC100 54.5 25.9 33% 29.84 0.0
07 23:15 E 6 10.00 Overcast BKN100 OVC120 54 26.2 34% 29.84 0.0
07 22:55 NE 7 10.00 Mostly Cloudy BKN110 54.7 25.5 32% 29.84 0.0
07 22:35 E 7 10.00 Fair CLR 53.1 26.8 36% 29.84 0.0
07 22:15 NE 5 10.00 Fair CLR 52.7 25.5 35% 29.84 0.0
07 21:55 Calm 10.00 Fair CLR 55.6 22.1 27% 29.83 0.0
07 21:35 Calm 10.00 Fair CLR 57.7 20.1 23% 29.83 0.0
07 21:15 Calm 10.00 Fair CLR 59 20.1 22% 29.82 0.0
07 20:55 Calm 10.00 Fair CLR 58.5 22.3 25% 29.82 0.0
07 20:35 Calm 10.00 Fair CLR 62.6 19.8 19% 29.81 0.0
07 20:15 Calm 10.00 Fair CLR 62.1 23.4 23% 29.81 0.0
07 19:55 Calm 10.00 Fair CLR 64 21.7 20% 29.81 0.0
07 19:35 Calm 10.00 Fair CLR 64.9 23.4 20% 29.81 0.0
07 19:15 Calm 10.00 Fair CLR 65.3 21.4 19% 29.81 0.0
07 18:55 W 7 10.00 Fair CLR 64.9 21.4 67.5 61.7 19% 29.81 0.0
07 18:35 W 3 10.00 Fair CLR 66.6 20.3 17% 29.81 0.0
07 18:15 SW 6 10.00 Fair CLR 67.3 21.7 18% 29.82 0.0
07 17:55 W 7 10.00 Fair CLR 64.4 20.8 19% 29.82 0.0
07 17:35 N 6 10.00 Fair CLR 66.7 20.3 17% 29.82 0.0
07 17:15 NW 12 10.00 Fair CLR 66.9 20.8 17% 29.82 0.0
07 16:55 NW 3 10.00 Fair CLR 65.7 19 17% 29.83 0.0
07 16:35 W 3 10.00 Fair CLR 66.4 19.6 17% 29.83 0.0
07 16:15 Calm 10.00 Fair CLR 64.6 20.1 18% 29.83 0.0
07 15:55 Calm 10.00 Fair CLR 64 19 18% 29.83 0.0
07 15:35 Calm 10.00 Fair CLR 65.7 19.4 17% 29.84 0.0
07 15:15 Calm 10.00 Fair CLR 64.9 19.4 17% 29.84 0.0
Date Time (cdt) Wind (mph) Vis. (mi.) Weather Sky Cond. Air Dwpt Max. Min. Relative Humidity Wind Chill (°F) Heat Index (°F) altimeter (in) sea level (mb) 1 hr 3 hr 6 hr
6 hour
Temperature (ºF) Pressure Precipitation (in)